Terminal Aerodrome Forecast
Issued by NWS

Home | Current Version | Previous Version | Graphics & Text | Print | Product List | Glossary On
Versions: 1 2 3 4 5 6 7 8 9 10 11 12 13 14 15 16
060
FTUS43 KBIS 241720
TAFDIK
TAF
KDIK 241720Z 2418/2518 32021G31KT P6SM FEW040
     FM250100 35013KT P6SM FEW080 FEW200
     FM250400 11005KT P6SM FEW080 FEW250
     FM250900 23005KT P6SM BKN080
     FM251600 29008KT P6SM FEW070 SCT120=

USA.gov is the U.S. government's official web portal to all federal, state and local government web resources and services.